Time;durP1;ratioP1;P1;durP2;ratioP2;P2;SDS_P1;SDS_P2;PMS_P1;PMS_P2;Temp;Humidity;BMP_temperature;BMP_pressure;BME280_temperature;BME280_humidity;BME280_pressure;Samples;Min_cycle;Max_cycle;Signal;HPM_P1;HPM_P2
2021/11/29 00:00:19;;;;;;;3.42;1.70;;;;;;;2.25;100.00;99469.41;6243783;23;20073;-78
2021/11/29 00:03:22;;;;;;;9.27;2.72;;;;;;;2.22;100.00;99455.75;6243857;23;20078;-78
2021/11/29 00:06:25;;;;;;;6.25;3.75;;;;;;;2.21;100.00;99470.69;6244004;23;20027;-78
2021/11/29 00:09:28;;;;;;;12.85;3.97;;;;;;;2.10;100.00;99468.19;6243921;23;20027;-78
2021/11/29 00:12:31;;;;;;;3.88;3.50;;;;;;;1.96;100.00;99470.50;6243546;23;20027;-78
2021/11/29 00:15:34;;;;;;;3.13;2.28;;;;;;;1.91;100.00;99468.25;6243434;23;20615;-79
2021/11/29 00:18:38;;;;;;;14.65;3.70;;;;;;;1.84;100.00;99471.16;6224753;23;20023;-79
2021/11/29 00:21:41;;;;;;;2.35;1.77;;;;;;;1.72;100.00;99474.56;6243091;23;20512;-78
2021/11/29 00:24:44;;;;;;;3.85;2.78;;;;;;;1.63;100.00;99477.09;6242606;23;20039;-79
2021/11/29 00:27:47;;;;;;;2.03;1.92;;;;;;;1.51;100.00;99475.78;6243113;23;20031;-79
2021/11/29 00:30:50;;;;;;;7.32;2.55;;;;;;;1.44;100.00;99476.72;6243351;23;20073;-79
2021/11/29 00:33:53;;;;;;;7.57;4.25;;;;;;;1.30;100.00;99482.47;6242764;23;20035;-79
2021/11/29 16:34:55;;;;;;;7.93;4.53;;;;;;;5.11;100.00;99574.84;5126976;27;20359;-54
2021/11/29 16:37:59;;;;;;;3.92;2.65;;;;;;;5.05;100.00;99573.09;5112418;27;20051;-55
2021/11/29 16:41:07;;;;;;;4.22;2.42;;;;;;;5.04;100.00;99582.59;5108116;28;20070;-55
2021/11/29 16:44:10;;;;;;;2.92;1.83;;;;;;;5.06;100.00;99577.41;5107468;28;20145;-55
2021/11/29 16:47:13;;;;;;;1.92;1.83;;;;;;;5.08;100.00;99577.72;5098875;28;20059;-55
2021/11/29 16:50:17;;;;;;;7.95;1.52;;;;;;;5.04;100.00;99580.63;5088216;28;20046;-55
2021/11/29 16:53:21;;;;;;;8.25;3.15;;;;;;;5.06;100.00;99574.66;5096149;28;20082;-55
2021/11/29 16:56:26;;;;;;;1.42;1.33;;;;;;;5.02;100.00;99565.72;5113094;28;20082;-55
2021/11/29 16:59:29;;;;;;;3.40;2.38;;;;;;;4.95;100.00;99552.94;5112855;28;20263;-55
2021/11/29 17:02:32;;;;;;;5.22;2.22;;;;;;;4.92;100.00;99558.53;5090852;28;20438;-55
2021/11/29 17:05:35;;;;;;;5.32;3.15;;;;;;;4.83;100.00;99561.22;5107415;28;20047;-55
2021/11/29 17:08:39;;;;;;;8.32;3.45;;;;;;;4.71;100.00;99562.00;5088301;28;20130;-55
2021/11/29 17:11:42;;;;;;;31.98;3.92;;;;;;;4.73;100.00;99576.13;5088117;28;20057;-55
2021/11/29 17:14:45;;;;;;;7.55;3.85;;;;;;;4.66;100.00;99557.81;5089843;28;20141;-55
2021/11/29 17:17:48;;;;;;;23.55;3.55;;;;;;;4.68;100.00;99554.63;5108071;28;20094;-56
2021/11/29 17:20:51;;;;;;;7.47;3.38;;;;;;;4.66;100.00;99548.78;5108182;28;20071;-56
2021/11/29 17:23:55;;;;;;;4.93;2.53;;;;;;;4.73;100.00;99551.31;5096812;28;20040;-55
2021/11/29 17:27:00;;;;;;;3.75;2.35;;;;;;;4.79;100.00;99544.00;5114571;28;20073;-56
2021/11/29 17:30:04;;;;;;;18.17;4.22;;;;;;;4.82;100.00;99537.59;5128286;28;20429;-56
2021/11/29 17:33:08;;;;;;;10.98;2.85;;;;;;;4.74;100.00;99536.31;5128956;28;20054;-55
2021/11/29 17:36:11;;;;;;;7.82;4.53;;;;;;;4.69;100.00;99545.13;5114842;28;20038;-55
2021/11/29 17:39:16;;;;;;;12.07;4.13;;;;;;;4.66;100.00;99546.03;5105580;28;20051;-56
2021/11/29 17:42:19;;;;;;;10.55;3.30;;;;;;;4.63;100.00;99542.91;5103124;28;20443;-56
2021/11/29 17:45:24;;;;;;;9.77;3.28;;;;;;;4.63;100.00;99538.63;5095933;28;20047;-56
2021/11/29 17:48:28;;;;;;;5.68;1.85;;;;;;;4.74;100.00;99545.34;5091946;28;20646;-56
2021/11/29 17:51:34;;;;;;;1.90;1.80;;;;;;;4.77;100.00;99549.19;5094211;28;20052;-56
2021/11/29 17:54:37;;;;;;;2.53;2.35;;;;;;;4.78;100.00;99553.50;5094290;28;20075;-55
2021/11/29 17:57:43;;;;;;;7.88;3.28;;;;;;;4.84;100.00;99540.69;5094560;28;20557;-56
2021/11/29 18:00:47;;;;;;;12.27;2.65;;;;;;;4.93;100.00;99538.03;5093945;28;20105;-56
2021/11/29 18:03:50;;;;;;;3.53;1.35;;;;;;;5.03;100.00;99547.94;5093217;28;20461;-56
2021/11/29 18:07:06;;;;;;;3.20;1.77;;;;;;;5.11;100.00;99543.72;5094089;28;20394;-56
2021/11/29 18:13:31;;;;;;;1.00;1.00;;;;;;;5.18;100.00;99537.94;5074415;28;20052;-56
2021/11/29 18:16:34;;;;;;;4.07;1.67;;;;;;;5.18;100.00;99532.44;5089891;28;20122;-56
2021/11/29 18:19:37;;;;;;;8.90;2.08;;;;;;;5.17;100.00;99528.16;5093956;28;20498;-52
2021/11/29 18:22:40;;;;;;;6.88;1.17;;;;;;;5.15;100.00;99527.81;5111007;28;20043;-52
2021/11/29 18:25:44;;;;;;;4.32;1.65;;;;;;;4.98;100.00;99534.72;5104853;28;20073;-52
2021/11/29 18:28:47;;;;;;;0.50;0.50;;;;;;;5.03;100.00;99532.16;5093510;28;20086;-53
2021/11/29 18:31:50;;;;;;;3.67;1.45;;;;;;;5.09;100.00;99516.56;5092220;28;20058;-52
2021/11/29 18:34:52;;;;;;;3.60;1.85;;;;;;;5.17;100.00;99514.34;5093364;28;20043;-52
2021/11/29 18:37:56;;;;;;;10.75;2.78;;;;;;;5.17;100.00;99506.06;5094148;28;20063;-52
2021/11/29 18:40:59;;;;;;;2.13;1.90;;;;;;;5.20;100.00;99513.44;5099178;28;20385;-51
2021/11/29 18:44:03;;;;;;;10.82;2.30;;;;;;;5.23;100.00;99512.53;5114175;28;20042;-52
2021/11/29 18:47:06;;;;;;;4.15;1.95;;;;;;;5.17;100.00;99514.34;5073176;28;20064;-53
2021/11/29 18:50:13;;;;;;;8.63;2.75;;;;;;;5.09;100.00;99518.56;5072617;28;20055;-54
2021/11/29 18:53:18;;;;;;;5.70;2.03;;;;;;;5.17;100.00;99519.88;5072465;28;20040;-53
2021/11/29 18:56:24;;;;;;;15.25;4.75;;;;;;;5.21;100.00;99515.00;5087468;28;20089;-54
2021/11/29 18:59:27;;;;;;;7.13;1.88;;;;;;;5.31;100.00;99519.34;5093336;28;20501;-54
2021/11/29 19:02:30;;;;;;;3.80;2.22;;;;;;;5.33;100.00;99500.34;5109519;28;20042;-54
2021/11/29 19:05:33;;;;;;;6.07;3.28;;;;;;;5.39;100.00;99512.38;5104289;28;20101;-55
2021/11/29 19:08:36;;;;;;;4.25;2.30;;;;;;;5.48;100.00;99506.91;5091825;28;20047;-55
2021/11/29 19:11:39;;;;;;;1.60;1.23;;;;;;;5.56;100.00;99512.94;5091850;28;20101;-55
2021/11/29 19:14:44;;;;;;;3.03;1.38;;;;;;;5.63;100.00;99513.44;5092124;28;20043;-55
2021/11/29 19:17:47;;;;;;;2.00;1.45;;;;;;;5.58;100.00;99510.50;5091646;28;20074;-56
2021/11/29 19:20:51;;;;;;;3.05;2.08;;;;;;;5.65;100.00;99511.00;5091978;28;20127;-56
2021/11/29 19:23:54;;;;;;;2.85;1.60;;;;;;;5.62;100.00;99511.16;5092472;28;20050;-56
2021/11/29 19:26:57;;;;;;;2.30;1.80;;;;;;;5.55;100.00;99514.16;5089915;28;20062;-56
2021/11/29 19:30:00;;;;;;;6.45;2.25;;;;;;;5.58;100.00;99519.56;5092771;28;20552;-56
2021/11/29 19:33:03;;;;;;;2.85;1.48;;;;;;;5.55;100.00;99517.69;5092867;28;20047;-56
2021/11/29 19:36:06;;;;;;;9.02;2.03;;;;;;;5.54;100.00;99516.19;5092348;28;20386;-56
2021/11/29 19:39:09;;;;;;;11.07;3.35;;;;;;;5.52;100.00;99521.38;5092597;28;20079;-56
2021/11/29 19:42:12;;;;;;;2.88;0.98;;;;;;;5.57;100.00;99518.03;5092795;28;20082;-56
2021/11/29 19:45:15;;;;;;;7.43;3.25;;;;;;;5.65;100.00;99511.00;5092999;28;20093;-56
2021/11/29 19:48:18;;;;;;;8.13;1.88;;;;;;;5.70;100.00;99518.72;5092406;28;20090;-55
2021/11/29 19:51:24;;;;;;;3.20;2.35;;;;;;;5.74;100.00;99507.56;5092693;28;20043;-55
2021/11/29 19:54:27;;;;;;;2.45;1.48;;;;;;;5.74;100.00;99508.31;5092488;28;20051;-56
2021/11/29 19:57:30;;;;;;;6.25;2.15;;;;;;;5.84;100.00;99501.66;5072079;28;20403;-56
2021/11/29 20:00:35;;;;;;;1.05;1.05;;;;;;;5.97;100.00;99501.56;5071680;28;20069;-56
2021/11/29 20:03:38;;;;;;;6.35;2.10;;;;;;;5.99;100.00;99496.38;5071565;28;20097;-56
2021/11/29 20:06:41;;;;;;;2.35;1.88;;;;;;;6.02;100.00;99504.50;5089978;28;20094;-56
2021/11/29 20:09:43;;;;;;;3.13;2.00;;;;;;;6.47;100.00;99503.16;5091883;28;20077;-56
2021/11/29 20:12:48;;;;;;;8.35;1.85;;;;;;;6.58;100.00;99498.72;5091975;28;20043;-56
2021/11/29 20:15:53;;;;;;;4.90;1.35;;;;;;;6.53;100.00;99495.81;5091678;28;20127;-56
2021/11/29 20:19:00;;;;;;;8.18;1.35;;;;;;;6.45;100.00;99497.31;5092039;28;20185;-56
2021/11/29 20:22:03;;;;;;;1.00;1.00;;;;;;;6.47;100.00;99503.16;5092228;28;20082;-56
2021/11/29 20:25:08;;;;;;;6.68;1.52;;;;;;;6.46;100.00;99498.84;5092204;28;20039;-56
2021/11/29 20:28:11;;;;;;;1.67;1.38;;;;;;;6.45;100.00;99505.63;5091879;28;20101;-56
2021/11/29 20:31:14;;;;;;;1.27;0.77;;;;;;;6.42;100.00;99507.31;5101136;28;20682;-56
2021/11/29 20:34:20;;;;;;;12.90;1.83;;;;;;;6.34;100.00;99499.75;5091310;28;20093;-56
2021/11/29 20:37:24;;;;;;;2.15;0.98;;;;;;;6.34;100.00;99494.22;5075939;28;20589;-55
2021/11/29 20:40:28;;;;;;;0.90;0.90;;;;;;;6.37;100.00;99483.00;5097835;28;20062;-55
2021/11/29 20:43:39;;;;;;;2.10;1.25;;;;;;;6.42;100.00;99476.09;5085274;28;20047;-56
2021/11/29 20:46:42;;;;;;;2.78;0.75;;;;;;;6.42;100.00;99481.63;5090576;28;20046;-55
2021/11/29 20:49:47;;;;;;;0.82;0.82;;;;;;;6.50;100.00;99483.66;5089923;28;20047;-55
2021/11/29 20:52:50;;;;;;;0.50;0.50;;;;;;;6.65;100.00;99481.06;5090491;28;20682;-55
2021/11/29 20:55:53;;;;;;;2.92;1.77;;;;;;;6.73;100.00;99474.03;5090954;28;20446;-55
2021/11/29 20:58:56;;;;;;;1.88;0.63;;;;;;;6.78;100.00;99467.88;5090235;28;20050;-54
2021/11/29 21:01:59;;;;;;;1.40;1.15;;;;;;;6.88;100.00;99461.91;5102242;28;20139;-55
2021/11/29 21:05:02;;;;;;;5.10;2.30;;;;;;;6.91;100.00;99454.66;5090756;28;20166;-55
2021/11/29 21:08:05;;;;;;;2.53;1.23;;;;;;;6.86;100.00;99463.59;5091843;28;20054;-55
2021/11/29 21:11:09;;;;;;;3.65;1.63;;;;;;;6.87;100.00;99467.91;5090665;28;20502;-55
2021/11/29 21:14:13;;;;;;;11.65;1.58;;;;;;;6.87;100.00;99456.81;5091587;28;20494;-54
2021/11/29 21:17:16;;;;;;;1.15;0.68;;;;;;;6.94;100.00;99464.84;5091550;28;20132;-55
2021/11/29 21:20:19;;;;;;;1.00;0.90;;;;;;;6.87;100.00;99462.34;5093615;28;20173;-55
2021/11/29 21:23:22;;;;;;;2.95;1.20;;;;;;;6.86;100.00;99452.53;5095295;28;20069;-55
2021/11/29 21:26:26;;;;;;;1.05;0.93;;;;;;;6.87;100.00;99460.38;5095105;28;20545;-55
2021/11/29 21:29:29;;;;;;;1.85;1.27;;;;;;;7.01;100.00;99453.47;5095112;28;20059;-56
2021/11/29 21:32:32;;;;;;;0.45;0.45;;;;;;;7.15;100.00;99452.84;5095065;28;20034;-56
2021/11/29 21:35:35;;;;;;;6.43;1.00;;;;;;;7.23;100.00;99448.53;5094536;28;20530;-56
2021/11/29 21:38:39;;;;;;;2.10;1.38;;;;;;;7.27;100.00;99438.06;5095014;28;20471;-56
2021/11/29 21:41:42;;;;;;;0.38;0.38;;;;;;;7.41;100.00;99434.66;5094606;28;20093;-55
2021/11/29 21:44:45;;;;;;;2.08;1.35;;;;;;;7.53;100.00;99433.72;5094306;28;20043;-56
2021/11/29 21:47:50;;;;;;;2.40;1.00;;;;;;;7.47;100.00;99430.03;5094573;28;20051;-55
2021/11/29 21:50:54;;;;;;;0.88;0.88;;;;;;;7.58;100.00;99430.31;5095088;28;20453;-55
2021/11/29 21:53:57;;;;;;;0.45;0.40;;;;;;;7.65;100.00;99424.44;5094693;28;20506;-56
2021/11/29 21:57:00;;;;;;;0.82;0.82;;;;;;;7.68;100.00;99413.66;5094891;28;20395;-56
2021/11/29 22:00:08;;;;;;;0.40;0.40;;;;;;;7.88;100.00;99413.91;5094549;28;20046;-56
2021/11/29 22:03:11;;;;;;;0.95;0.90;;;;;;;7.95;100.00;99408.03;5094460;28;20120;-56
2021/11/29 22:06:14;;;;;;;0.25;0.25;;;;;;;8.02;100.00;99418.78;5094452;28;20055;-56
2021/11/29 22:09:16;;;;;;;0.35;0.35;;;;;;;8.00;100.00;99410.94;5094354;28;20058;-56
2021/11/29 22:12:20;;;;;;;8.52;1.17;;;;;;;8.01;100.00;99423.53;5094601;28;20067;-56
2021/11/29 22:15:23;;;;;;;1.25;0.90;;;;;;;7.87;100.00;99415.91;5094670;28;20093;-56
2021/11/29 22:18:26;;;;;;;1.08;1.08;;;;;;;7.94;100.00;99417.56;5094458;28;20503;-56
2021/11/29 22:21:29;;;;;;;1.38;1.17;;;;;;;7.94;100.00;99423.13;5094735;28;20051;-57
2021/11/29 22:24:32;;;;;;;0.70;0.47;;;;;;;7.94;100.00;99417.56;5093914;28;20058;-56
2021/11/29 22:27:35;;;;;;;2.47;0.52;;;;;;;7.95;100.00;99413.59;5073926;28;20050;-57
2021/11/29 22:30:38;;;;;;;0.55;0.55;;;;;;;7.84;100.00;99408.50;5072922;28;20054;-56
2021/11/29 22:33:41;;;;;;;1.30;0.45;;;;;;;7.75;100.00;99407.81;5073397;28;20388;-56
2021/11/29 22:36:44;;;;;;;2.10;1.15;;;;;;;7.71;100.00;99410.72;5092068;28;20124;-56
2021/11/29 22:39:48;;;;;;;2.05;0.70;;;;;;;7.85;100.00;99407.28;5093465;28;20058;-56
2021/11/29 22:42:50;;;;;;;0.60;0.60;;;;;;;7.87;100.00;99399.28;5093335;28;20051;-56
2021/11/29 22:45:53;;;;;;;0.95;0.50;;;;;;;7.78;100.00;99404.06;5093605;28;20153;-56
2021/11/29 22:48:57;;;;;;;0.30;0.30;;;;;;;7.73;100.00;99407.50;5094193;28;20046;-56
2021/11/29 22:52:00;;;;;;;0.20;0.20;;;;;;;7.72;100.00;99417.81;5093534;28;20173;-56
2021/11/29 22:55:04;;;;;;;0.40;0.40;;;;;;;7.87;100.00;99415.13;5093643;28;20479;-56
2021/11/29 22:58:07;;;;;;;0.20;0.20;;;;;;;7.96;100.00;99421.44;5093467;28;20517;-56
2021/11/29 23:01:21;;;;;;;1.95;0.52;;;;;;;7.97;100.00;99422.19;5093449;28;20489;-56
2021/11/29 23:04:25;;;;;;;0.63;0.50;;;;;;;7.91;100.00;99412.97;5093118;28;20047;-56
2021/11/29 23:07:28;;;;;;;0.30;0.30;;;;;;;7.94;100.00;99414.81;5093353;28;20066;-56
2021/11/29 23:10:31;;;;;;;2.97;1.17;;;;;;;7.90;100.00;99416.97;5092938;28;20118;-56
2021/11/29 23:13:34;;;;;;;4.68;0.77;;;;;;;7.86;100.00;99419.16;5092558;28;20047;-56
2021/11/29 23:16:38;;;;;;;0.93;0.88;;;;;;;7.95;100.00;99419.88;5092816;28;20457;-56
2021/11/29 23:19:42;;;;;;;1.10;1.02;;;;;;;8.00;100.00;99421.25;5103715;28;20449;-56
2021/11/29 23:22:45;;;;;;;3.63;1.42;;;;;;;8.07;100.00;99415.38;5092853;28;20557;-56
2021/11/29 23:25:48;;;;;;;0.88;0.88;;;;;;;7.95;100.00;99414.34;5092514;28;20047;-56
2021/11/29 23:28:51;;;;;;;1.05;0.93;;;;;;;7.98;100.00;99421.72;5092429;28;20683;-56
2021/11/29 23:31:54;;;;;;;10.43;0.98;;;;;;;8.10;100.00;99403.34;5092806;28;20047;-56
2021/11/29 23:34:57;;;;;;;4.72;1.08;;;;;;;8.44;100.00;99404.88;5092724;28;20039;-57
2021/11/29 23:37:59;;;;;;;6.38;1.10;;;;;;;8.64;100.00;99411.34;5092646;28;20093;-57
2021/11/29 23:41:03;;;;;;;4.55;1.88;;;;;;;8.69;100.00;99405.16;5093068;28;20051;-57
2021/11/29 23:44:06;;;;;;;0.70;0.70;;;;;;;8.63;100.00;99412.63;5092009;28;20396;-57
2021/11/29 23:47:18;;;;;;;0.80;0.80;;;;;;;8.56;100.00;99407.41;5092737;28;20682;-58
2021/11/29 23:50:22;;;;;;;0.40;0.40;;;;;;;8.61;100.00;99398.44;5092943;28;20392;-57
2021/11/29 23:53:38;;;;;;;0.55;0.52;;;;;;;8.56;100.00;99401.84;5092952;28;20047;-56
2021/11/29 23:56:52;;;;;;;0.95;0.95;;;;;;;8.62;100.00;99402.00;5091925;28;20055;-56
2021/11/29 23:59:55;;;;;;;1.45;0.68;;;;;;;8.53;100.00;99388.94;5092363;28;20132;-56
